createdAt,value
2022-08-25T00:02:02.043Z,5.65
2022-08-25T00:04:29.762Z,6.22
2022-08-25T00:07:02.230Z,6.90
2022-08-25T00:09:31.478Z,6.60
2022-08-25T00:11:58.585Z,6.47
2022-08-25T00:14:29.261Z,5.90
2022-08-25T00:16:56.226Z,6.95
2022-08-25T00:19:26.944Z,6.53
2022-08-25T00:21:56.088Z,5.57
2022-08-25T00:24:24.439Z,6.45
2022-08-25T00:26:55.014Z,7.30
2022-08-25T00:29:23.014Z,6.50
2022-08-25T00:31:49.608Z,4.97
2022-08-25T00:34:20.415Z,6.13
2022-08-25T00:36:47.314Z,6.78
2022-08-25T00:39:14.487Z,5.93
2022-08-25T00:41:43.178Z,5.93
2022-08-25T00:44:12.686Z,6.07
2022-08-25T00:46:45.913Z,5.45
2022-08-25T00:49:31.990Z,5.93
2022-08-25T00:54:47.817Z,6.30
2022-08-25T00:57:16.558Z,6.03
2022-08-25T00:59:44.443Z,5.72
2022-08-25T01:02:14.006Z,5.93
2022-08-25T01:04:48.906Z,7.07
2022-08-25T01:07:19.491Z,6.53
2022-08-25T01:09:49.841Z,5.45
2022-08-25T01:12:16.642Z,5.68
2022-08-25T01:14:46.018Z,6.43
2022-08-25T01:17:14.234Z,5.93
2022-08-25T01:19:41.074Z,4.75
2022-08-25T01:22:07.784Z,6.07
2022-08-25T01:24:34.303Z,6.40
2022-08-25T01:27:01.369Z,6.07
2022-08-25T01:29:28.415Z,6.03
2022-08-25T01:31:59.050Z,7.47
2022-08-25T01:34:31.751Z,6.35
2022-08-25T01:37:00.214Z,7.20
2022-08-25T01:39:28.883Z,6.13
2022-08-25T01:42:08.989Z,4.95
2022-08-25T01:44:46.297Z,6.13
2022-08-25T01:47:14.261Z,6.63
2022-08-25T01:49:40.896Z,6.13
2022-08-25T01:52:10.494Z,5.70
2022-08-25T01:54:37.117Z,6.22
2022-08-25T01:57:04.291Z,6.30
2022-08-25T01:59:30.898Z,5.32
2022-08-25T02:02:00.043Z,6.10
2022-08-25T02:04:32.062Z,5.10
2022-08-25T02:07:05.437Z,6.07
2022-08-25T02:09:32.528Z,6.75
2022-08-25T02:11:59.340Z,6.28
2022-08-25T02:14:26.016Z,6.30
2022-08-25T02:16:54.972Z,6.60
2022-08-25T02:19:24.413Z,6.63
2022-08-25T02:21:51.285Z,6.18
2022-08-25T02:24:18.780Z,6.57
2022-08-25T02:26:45.518Z,6.13
2022-08-25T02:29:12.427Z,6.43
2022-08-25T02:31:39.831Z,7.15
2022-08-25T02:34:07.921Z,5.65
2022-08-25T02:36:35.087Z,5.40
2022-08-25T02:39:02.283Z,6.55
2022-08-25T02:41:31.841Z,6.75
2022-08-25T02:44:02.772Z,6.13
2022-08-25T02:46:29.623Z,6.85
2022-08-25T02:48:56.574Z,6.78
2022-08-25T02:51:25.547Z,6.95
2022-08-25T02:53:52.497Z,7.07
2022-08-25T02:56:19.855Z,8.43
2022-08-25T02:58:48.028Z,6.68
2022-08-25T03:01:15.787Z,6.18
2022-08-25T03:03:45.912Z,6.35
2022-08-25T03:06:15.497Z,7.13
2022-08-25T03:08:43.055Z,6.38
2022-08-25T03:11:10.841Z,7.70
2022-08-25T03:13:37.907Z,6.03
2022-08-25T03:16:10.977Z,7.70
2022-08-25T03:18:39.525Z,7.90
2022-08-25T03:21:07.575Z,7.57
2022-08-25T03:23:34.148Z,7.10
2022-08-25T03:26:20.491Z,6.47
2022-08-25T03:28:47.181Z,6.80
2022-08-25T03:31:13.890Z,6.30
2022-08-25T03:33:40.593Z,6.70
2022-08-25T03:36:08.596Z,8.68
2022-08-25T03:38:38.259Z,7.07
2022-08-25T03:41:23.656Z,7.97
2022-08-25T03:43:53.860Z,8.10
2022-08-25T03:46:24.800Z,7.05
2022-08-25T03:48:52.324Z,7.88
2022-08-25T03:51:24.264Z,7.95
2022-08-25T03:53:51.482Z,6.05
2022-08-25T03:56:18.665Z,6.47
2022-08-25T03:58:45.813Z,6.93
2022-08-25T04:01:12.557Z,7.05
2022-08-25T04:03:39.261Z,6.95
2022-08-25T04:06:07.760Z,7.90
2022-08-25T04:08:34.829Z,6.65
2022-08-25T04:11:13.948Z,6.45
2022-08-25T04:13:45.740Z,6.78
2022-08-25T04:16:15.014Z,6.78
2022-08-25T04:18:42.832Z,6.97
2022-08-25T04:21:11.205Z,7.57
2022-08-25T04:23:42.724Z,7.38
2022-08-25T04:26:32.601Z,7.20
2022-08-25T04:29:00.866Z,6.93
2022-08-25T04:31:28.815Z,6.97
2022-08-25T04:33:55.523Z,7.05
2022-08-25T04:36:22.632Z,7.13
2022-08-25T04:38:50.058Z,6.88
2022-08-25T04:41:21.186Z,7.15
2022-08-25T04:43:48.515Z,6.65
2022-08-25T04:46:23.444Z,6.72
2022-08-25T04:48:53.485Z,6.82
2022-08-25T04:51:26.361Z,6.55
2022-08-25T04:53:54.316Z,6.88
2022-08-25T04:56:25.063Z,7.32
2022-08-25T04:58:53.550Z,8.95
2022-08-25T05:01:24.212Z,7.35
2022-08-25T05:03:59.650Z,5.72
2022-08-25T05:06:27.501Z,7.28
2022-08-25T05:08:54.263Z,6.80
2022-08-25T05:11:21.900Z,7.10
2022-08-25T05:13:52.714Z,7.35
2022-08-25T05:16:21.841Z,7.78
2022-08-25T05:18:50.507Z,7.32
2022-08-25T05:21:20.216Z,7.45
2022-08-25T05:23:47.675Z,7.57
2022-08-25T05:26:20.652Z,7.72
2022-08-25T05:28:50.404Z,9.18
2022-08-25T05:31:17.978Z,6.97
2022-08-25T05:33:44.669Z,7.07
2022-08-25T05:36:13.739Z,7.93
2022-08-25T05:38:41.840Z,7.10
2022-08-25T05:41:12.096Z,6.78
2022-08-25T05:43:41.008Z,7.30
2022-08-25T05:46:09.265Z,7.25
2022-08-25T05:48:36.633Z,7.88
2022-08-25T05:51:06.933Z,7.97
2022-08-25T05:53:34.251Z,8.15
2022-08-25T05:56:01.923Z,8.90
2022-08-25T05:58:29.657Z,7.65
2022-08-25T06:00:58.387Z,8.02
2022-08-25T06:03:25.107Z,8.07
2022-08-25T06:05:51.749Z,7.85
2022-08-25T06:08:19.482Z,7.40
2022-08-25T06:10:51.696Z,8.43
2022-08-25T06:13:26.953Z,8.80
2022-08-25T06:15:59.801Z,7.05
2022-08-25T06:18:26.914Z,7.70
2022-08-25T06:20:54.018Z,8.05
2022-08-25T06:23:20.641Z,7.68
2022-08-25T06:25:51.810Z,7.32
2022-08-25T06:28:19.313Z,7.38
2022-08-25T06:30:46.901Z,7.40
2022-08-25T06:33:14.728Z,7.35
2022-08-25T06:35:43.216Z,6.90
2022-08-25T06:38:11.039Z,6.97
2022-08-25T06:40:38.484Z,7.75
2022-08-25T06:43:08.778Z,7.25
2022-08-25T06:45:35.855Z,7.20
2022-08-25T06:48:02.527Z,7.97
2022-08-25T06:50:29.410Z,8.30
2022-08-25T06:52:56.066Z,7.55
2022-08-25T06:55:22.693Z,6.93
2022-08-25T06:57:53.333Z,7.30
2022-08-25T07:00:22.538Z,8.48
2022-08-25T07:02:57.624Z,7.88
2022-08-25T07:05:33.589Z,7.93
2022-08-25T07:08:07.320Z,7.90
2022-08-25T07:10:33.922Z,7.88
2022-08-25T07:13:01.565Z,8.00
2022-08-25T07:15:28.230Z,9.02
2022-08-25T07:17:54.937Z,8.63
2022-08-25T07:22:54.025Z,7.93
2022-08-25T07:25:20.616Z,6.88
2022-08-25T07:27:47.195Z,7.35
2022-08-25T07:30:13.904Z,8.05
2022-08-25T07:32:42.241Z,8.05
2022-08-25T07:35:18.920Z,8.63
2022-08-25T07:37:52.017Z,7.95
2022-08-25T07:40:24.324Z,7.53
2022-08-25T07:42:52.841Z,8.38
2022-08-25T07:45:21.234Z,7.35
2022-08-25T07:47:48.530Z,6.95
2022-08-25T07:50:18.656Z,6.40
2022-08-25T07:52:49.727Z,10.55
2022-08-25T07:55:20.640Z,6.78
2022-08-25T07:57:48.972Z,8.43
2022-08-25T08:00:21.843Z,7.90
2022-08-25T08:02:48.572Z,7.18
2022-08-25T08:05:15.530Z,6.90
2022-08-25T08:07:43.986Z,6.60
2022-08-25T08:13:01.708Z,6.40
2022-08-25T08:15:29.704Z,7.28
2022-08-25T08:17:58.116Z,7.07
2022-08-25T08:20:26.869Z,6.32
2022-08-25T08:22:53.631Z,7.47
2022-08-25T08:25:21.594Z,7.63
2022-08-25T08:27:55.050Z,6.63
2022-08-25T08:30:22.267Z,5.28
2022-08-25T08:33:09.311Z,5.43
2022-08-25T08:35:36.615Z,6.10
2022-08-25T08:38:03.421Z,6.65
2022-08-25T08:40:33.760Z,6.63
2022-08-25T08:43:18.226Z,5.50
2022-08-25T08:45:51.944Z,5.77
2022-08-25T08:48:41.973Z,5.47
2022-08-25T08:51:42.349Z,4.65
2022-08-25T08:54:23.121Z,5.20
2022-08-25T08:56:55.186Z,4.63
2022-08-25T08:59:30.089Z,4.72
2022-08-25T09:02:02.733Z,4.05
2022-08-25T09:04:55.071Z,4.10
2022-08-25T09:07:32.275Z,4.18
2022-08-25T09:09:59.471Z,4.18
2022-08-25T09:12:56.847Z,3.67
2022-08-25T09:16:20.451Z,5.00
2022-08-25T09:19:25.987Z,3.90
2022-08-25T09:22:35.909Z,4.50
2022-08-25T09:25:29.456Z,4.30
2022-08-25T09:28:33.280Z,4.95
2022-08-25T09:31:27.510Z,3.75
2022-08-25T09:34:00.038Z,4.15
2022-08-25T09:36:30.140Z,3.63
2022-08-25T09:38:57.969Z,4.00
2022-08-25T09:41:52.087Z,3.72
2022-08-25T09:44:29.363Z,2.97
2022-08-25T09:47:01.908Z,4.75
2022-08-25T09:49:43.962Z,3.20
2022-08-25T09:52:29.070Z,3.92
2022-08-25T09:54:59.441Z,3.67
2022-08-25T09:57:35.055Z,4.47
2022-08-25T10:00:19.628Z,3.35
2022-08-25T10:03:05.606Z,2.75
2022-08-25T10:05:37.590Z,3.13
2022-08-25T10:08:14.678Z,3.05
2022-08-25T10:10:54.947Z,3.40
2022-08-25T10:13:25.065Z,4.00
2022-08-25T10:16:24.506Z,3.20
2022-08-25T10:19:10.306Z,2.75
2022-08-25T10:21:39.330Z,3.35
2022-08-25T10:24:11.308Z,2.90
2022-08-25T10:26:56.882Z,3.08
2022-08-25T10:32:24.555Z,2.95
2022-08-25T10:34:58.631Z,2.53
2022-08-25T10:37:28.576Z,3.10
2022-08-25T10:40:07.994Z,2.80
2022-08-25T10:43:00.888Z,4.30
2022-08-25T10:45:43.638Z,3.80
2022-08-25T10:48:40.754Z,3.58
2022-08-25T10:51:40.975Z,4.50
2022-08-25T10:54:30.577Z,4.80
2022-08-25T10:57:08.184Z,18.35
2022-08-25T10:59:36.762Z,9.68
2022-08-25T11:02:21.671Z,8.57
2022-08-25T11:05:05.359Z,8.00
2022-08-25T11:07:46.946Z,5.75
2022-08-25T11:10:26.024Z,4.93
2022-08-25T11:12:59.815Z,4.63
2022-08-25T11:15:41.480Z,3.35
2022-08-25T11:18:16.870Z,3.53
2022-08-25T11:20:53.762Z,4.28
2022-08-25T11:30:19.209Z,9.38
2022-08-25T11:32:52.162Z,47.60
2022-08-25T11:35:42.651Z,48.37
2022-08-25T11:38:34.908Z,14.30
2022-08-25T11:41:27.175Z,4.38
2022-08-25T11:44:26.934Z,15.30
2022-08-25T11:47:21.170Z,5.50
2022-08-25T11:50:29.878Z,7.53
2022-08-25T11:53:23.607Z,6.60
2022-08-25T11:55:58.911Z,14.30
2022-08-25T11:58:28.482Z,13.18
2022-08-25T12:01:00.447Z,17.48
2022-08-25T12:03:34.023Z,12.05
2022-08-25T12:06:15.890Z,7.00
2022-08-25T12:08:57.513Z,4.32
2022-08-25T12:11:47.484Z,3.70
2022-08-25T12:14:36.461Z,3.50
2022-08-25T12:17:18.282Z,3.90
2022-08-25T12:19:44.910Z,3.13
2022-08-25T12:22:11.465Z,3.40
2022-08-25T12:24:53.844Z,2.97
2022-08-25T12:27:38.282Z,3.03
2022-08-25T12:30:21.125Z,3.42
2022-08-25T12:33:11.971Z,2.65
2022-08-25T12:35:49.730Z,3.03
2022-08-25T12:38:50.928Z,3.22
2022-08-25T12:41:26.535Z,3.53
2022-08-25T12:44:08.956Z,3.65
2022-08-25T12:46:39.465Z,3.08
2022-08-25T12:49:18.287Z,3.58
2022-08-25T12:51:54.228Z,3.30
2022-08-25T12:54:36.969Z,3.90
2022-08-25T12:57:29.389Z,2.88
2022-08-25T13:00:01.056Z,3.33
2022-08-25T13:03:09.879Z,3.72
2022-08-25T13:05:54.916Z,2.65
2022-08-25T13:08:48.602Z,3.42
2022-08-25T13:11:40.851Z,3.22
2022-08-25T13:14:42.123Z,2.20
2022-08-25T13:17:11.073Z,3.00
2022-08-25T13:19:38.417Z,2.63
2022-08-25T13:22:17.722Z,3.30
2022-08-25T13:24:50.441Z,3.08
2022-08-25T13:27:28.176Z,3.08
2022-08-25T13:30:03.703Z,3.30
2022-08-25T13:32:35.085Z,3.60
2022-08-25T13:35:20.945Z,4.38
2022-08-25T13:37:48.273Z,3.33
2022-08-25T13:40:33.361Z,3.83
2022-08-25T13:43:05.791Z,3.72
2022-08-25T13:45:41.477Z,3.17
2022-08-25T13:48:22.432Z,2.78
2022-08-25T13:50:52.659Z,3.90
2022-08-25T13:53:25.882Z,3.13
2022-08-25T13:55:58.698Z,3.53
2022-08-25T13:58:38.668Z,3.40
2022-08-25T14:01:47.201Z,3.40
2022-08-25T14:04:24.247Z,3.63
2022-08-25T14:07:08.389Z,3.40
2022-08-25T14:09:49.335Z,3.08
2022-08-25T14:15:02.819Z,3.60
2022-08-25T14:17:39.436Z,3.50
2022-08-25T14:20:20.439Z,3.38
2022-08-25T14:22:47.878Z,2.90
2022-08-25T14:25:15.147Z,2.80
2022-08-25T14:28:03.665Z,2.35
2022-08-25T14:30:34.889Z,3.33
2022-08-25T14:33:04.025Z,2.47
2022-08-25T14:35:31.753Z,3.72
2022-08-25T14:37:58.966Z,2.97
2022-08-25T14:40:25.779Z,3.70
2022-08-25T14:42:52.437Z,3.50
2022-08-25T14:45:19.428Z,2.97
2022-08-25T14:47:49.729Z,3.63
2022-08-25T14:50:24.735Z,3.75
2022-08-25T14:52:52.185Z,4.47
2022-08-25T14:55:32.234Z,3.72
2022-08-25T14:57:59.937Z,3.83
2022-08-25T15:00:26.612Z,4.07
2022-08-25T15:02:54.918Z,3.72
2022-08-25T15:05:27.058Z,4.38
2022-08-25T15:08:14.254Z,3.87
2022-08-25T15:10:42.176Z,3.97
2022-08-25T15:13:10.738Z,4.22
2022-08-25T15:15:52.311Z,3.67
2022-08-25T15:18:21.141Z,3.47
2022-08-25T15:20:50.073Z,4.30
2022-08-25T15:23:18.550Z,3.83
2022-08-25T15:25:48.025Z,3.53
2022-08-25T15:28:17.089Z,4.07
2022-08-25T15:30:45.154Z,3.92
2022-08-25T15:33:13.161Z,3.72
2022-08-25T15:35:41.003Z,3.88
2022-08-25T15:38:08.211Z,3.90
2022-08-25T15:40:37.629Z,4.22
2022-08-25T15:43:04.982Z,3.33
2022-08-25T15:45:32.082Z,3.65
2022-08-25T15:47:59.548Z,3.90
2022-08-25T15:50:26.902Z,3.63
2022-08-25T15:52:53.617Z,3.83
2022-08-25T15:55:20.993Z,4.63
2022-08-25T15:57:49.719Z,4.45
2022-08-25T16:00:18.182Z,4.38
2022-08-25T16:02:45.466Z,4.65
2022-08-25T16:05:16.283Z,4.75
2022-08-25T16:07:45.918Z,5.38
2022-08-25T16:10:13.607Z,4.10
2022-08-25T16:12:40.320Z,4.75
2022-08-25T16:15:09.983Z,4.63
2022-08-25T16:17:40.965Z,4.65
2022-08-25T16:20:12.591Z,5.35
2022-08-25T16:22:40.359Z,4.88
2022-08-25T16:25:07.509Z,4.82
2022-08-25T16:27:38.644Z,5.10
2022-08-25T16:30:09.126Z,4.03
2022-08-25T16:32:37.055Z,4.68
2022-08-25T16:35:05.732Z,4.68
2022-08-25T16:37:37.774Z,4.28
2022-08-25T16:40:05.274Z,6.25
2022-08-25T16:42:31.959Z,5.00
2022-08-25T16:44:59.911Z,6.18
2022-08-25T16:47:26.959Z,5.05
2022-08-25T16:49:54.132Z,5.85
2022-08-25T16:52:40.651Z,5.75
2022-08-25T16:55:12.815Z,6.13
2022-08-25T16:57:41.405Z,5.53
2022-08-25T17:00:13.539Z,5.80
2022-08-25T17:02:41.605Z,5.85
2022-08-25T17:05:10.243Z,5.75
2022-08-25T17:07:37.422Z,5.90
2022-08-25T17:10:05.661Z,5.53
2022-08-25T17:12:32.786Z,5.75
2022-08-25T17:14:59.490Z,5.85
2022-08-25T17:17:27.073Z,6.03
2022-08-25T17:19:54.876Z,6.53
2022-08-25T17:22:22.574Z,5.35
2022-08-25T17:24:53.419Z,7.47
2022-08-25T17:27:27.284Z,5.80
2022-08-25T17:29:54.611Z,6.53
2022-08-25T17:32:28.872Z,6.72
2022-08-25T17:34:57.812Z,7.40
2022-08-25T17:37:24.632Z,7.20
2022-08-25T17:39:56.711Z,6.45
2022-08-25T17:42:31.630Z,7.25
2022-08-25T17:44:58.249Z,6.95
2022-08-25T17:47:26.991Z,7.63
2022-08-25T17:49:54.343Z,8.55
2022-08-25T17:52:25.423Z,7.18
2022-08-25T17:54:52.941Z,6.28
2022-08-25T17:57:19.809Z,6.80
2022-08-25T17:59:48.095Z,6.68
2022-08-25T18:02:14.930Z,8.40
2022-08-25T18:04:42.491Z,7.20
2022-08-25T18:07:12.016Z,7.22
2022-08-25T18:09:38.669Z,7.45
2022-08-25T18:12:05.652Z,6.65
2022-08-25T18:14:32.304Z,6.55
2022-08-25T18:17:00.234Z,6.50
2022-08-25T18:19:26.946Z,6.25
2022-08-25T18:21:53.614Z,6.60
2022-08-25T18:24:21.097Z,5.97
2022-08-25T18:26:50.515Z,6.75
2022-08-25T18:29:17.372Z,6.20
2022-08-25T18:31:46.584Z,7.70
2022-08-25T18:34:15.994Z,6.55
2022-08-25T18:36:42.730Z,6.10
2022-08-25T18:39:34.576Z,6.45
2022-08-25T18:42:03.078Z,6.72
2022-08-25T18:44:31.601Z,7.10
2022-08-25T18:46:58.797Z,6.15
2022-08-25T18:49:26.755Z,6.78
2022-08-25T18:51:55.573Z,6.95
2022-08-25T18:54:23.071Z,7.47
2022-08-25T18:56:52.477Z,7.55
2022-08-25T18:59:19.989Z,7.45
2022-08-25T19:01:50.983Z,7.18
2022-08-25T19:04:17.783Z,8.57
2022-08-25T19:06:44.825Z,8.52
2022-08-25T19:09:11.968Z,6.78
2022-08-25T19:11:38.804Z,7.45
2022-08-25T19:14:08.086Z,7.07
2022-08-25T19:16:42.548Z,7.07
2022-08-25T19:19:13.318Z,6.65
2022-08-25T19:21:41.416Z,7.05
2022-08-25T19:24:10.385Z,7.72
2022-08-25T19:26:38.916Z,6.75
2022-08-25T19:29:09.417Z,7.85
2022-08-25T19:31:37.622Z,6.63
2022-08-25T19:34:07.368Z,6.88
2022-08-25T19:36:34.288Z,6.72
2022-08-25T19:39:02.152Z,7.75
2022-08-25T19:41:31.373Z,6.82
2022-08-25T19:43:59.473Z,8.45
2022-08-25T19:46:35.662Z,7.43
2022-08-25T19:49:19.078Z,8.00
2022-08-25T19:51:50.530Z,6.85
2022-08-25T19:54:26.421Z,7.88
2022-08-25T19:56:54.481Z,7.57
2022-08-25T19:59:40.689Z,7.13
2022-08-25T20:02:15.487Z,7.15
2022-08-25T20:04:49.719Z,7.32
2022-08-25T20:07:19.053Z,7.18
2022-08-25T20:09:45.935Z,6.93
2022-08-25T20:12:12.990Z,7.63
2022-08-25T20:14:40.045Z,7.70
2022-08-25T20:17:14.617Z,7.47
2022-08-25T20:19:56.124Z,8.15
2022-08-25T20:22:26.145Z,8.77
2022-08-25T20:24:58.112Z,8.05
2022-08-25T20:27:36.272Z,7.15
2022-08-25T20:30:06.044Z,7.22
2022-08-25T20:32:33.604Z,8.00
2022-08-25T20:35:02.451Z,8.35
2022-08-25T20:37:30.531Z,8.02
2022-08-25T20:39:57.650Z,8.98
2022-08-25T20:42:25.023Z,8.55
2022-08-25T20:44:51.821Z,8.13
2022-08-25T20:47:21.026Z,8.27
2022-08-25T20:49:48.494Z,8.05
2022-08-25T20:52:16.014Z,9.02
2022-08-25T20:54:46.983Z,9.02
2022-08-25T20:57:17.751Z,8.73
2022-08-25T20:59:44.375Z,9.05
2022-08-25T21:02:11.073Z,8.95
2022-08-25T21:04:39.970Z,8.70
2022-08-25T21:07:17.625Z,9.13
2022-08-25T21:09:44.606Z,9.20
2022-08-25T21:12:11.219Z,7.55
2022-08-25T21:14:40.739Z,8.23
2022-08-25T21:17:10.519Z,8.13
2022-08-25T21:19:38.906Z,9.25
2022-08-25T21:22:07.525Z,9.70
2022-08-25T21:24:34.565Z,9.30
2022-08-25T21:27:03.249Z,9.23
2022-08-25T21:29:32.565Z,9.02
2022-08-25T21:32:00.207Z,9.43
2022-08-25T21:34:29.107Z,8.55
2022-08-25T21:36:57.857Z,9.10
2022-08-25T21:39:27.472Z,8.85
2022-08-25T21:41:58.550Z,10.52
2022-08-25T21:44:26.914Z,9.02
2022-08-25T21:46:54.584Z,9.98
2022-08-25T21:49:22.553Z,9.90
2022-08-25T21:51:59.326Z,9.32
2022-08-25T21:54:28.781Z,10.13
2022-08-25T21:56:59.697Z,9.93
2022-08-25T21:59:31.908Z,9.85
2022-08-25T22:02:00.713Z,9.90
2022-08-25T22:04:28.458Z,10.05
2022-08-25T22:06:55.741Z,10.20
2022-08-25T22:09:25.166Z,11.27
2022-08-25T22:11:54.642Z,9.73
2022-08-25T22:14:22.033Z,9.50
2022-08-25T22:16:48.664Z,10.45
2022-08-25T22:19:15.343Z,9.68
2022-08-25T22:21:43.965Z,10.77
2022-08-25T22:24:11.747Z,10.43
2022-08-25T22:26:39.102Z,11.02
2022-08-25T22:29:06.600Z,10.77
2022-08-25T22:31:35.003Z,10.00
2022-08-25T22:34:03.630Z,10.82
2022-08-25T22:36:34.441Z,10.82
2022-08-25T22:39:02.225Z,10.77
2022-08-25T22:41:30.154Z,9.40
2022-08-25T22:43:57.711Z,9.90
2022-08-25T22:46:26.231Z,11.98
2022-08-25T22:48:55.586Z,9.98
2022-08-25T22:51:27.709Z,11.05
2022-08-25T22:53:54.796Z,10.48
2022-08-25T22:56:29.823Z,11.48
2022-08-25T22:59:03.147Z,10.77
2022-08-25T23:01:31.872Z,10.20
2022-08-25T23:04:01.770Z,10.23
2022-08-25T23:06:28.789Z,10.80
2022-08-25T23:08:56.261Z,10.32
2022-08-25T23:11:24.572Z,10.07
2022-08-25T23:13:55.356Z,11.65
2022-08-25T23:16:22.537Z,11.15
2022-08-25T23:18:49.311Z,11.43
2022-08-25T23:21:38.024Z,11.80
2022-08-25T23:24:10.708Z,11.40
2022-08-25T23:26:42.570Z,11.15
2022-08-25T23:29:18.639Z,12.30
2022-08-25T23:31:47.688Z,9.68
2022-08-25T23:34:16.578Z,11.10
2022-08-25T23:36:43.813Z,11.60
2022-08-25T23:39:10.922Z,11.57
2022-08-25T23:41:37.592Z,11.68
2022-08-25T23:44:05.483Z,10.75
2022-08-25T23:46:35.002Z,10.70
2022-08-25T23:49:03.145Z,10.85
2022-08-25T23:51:34.322Z,10.75
2022-08-25T23:54:09.146Z,12.05
2022-08-25T23:56:37.251Z,11.82
2022-08-25T23:59:09.739Z,10.80
